createdAt,value
2019-04-30T00:00:06.165Z,945.62
2019-04-30T00:01:07.407Z,945.66
2019-04-30T00:02:05.686Z,945.64
2019-04-30T00:03:06.781Z,945.61
2019-04-30T00:04:05.751Z,945.63
2019-04-30T00:05:05.470Z,945.60
2019-04-30T00:06:07.230Z,945.67
2019-04-30T00:07:05.637Z,945.62
2019-04-30T00:08:05.814Z,945.60
2019-04-30T00:09:05.373Z,945.59
2019-04-30T00:10:06.024Z,945.63
2019-04-30T00:11:05.360Z,945.59
2019-04-30T00:12:05.609Z,945.63
2019-04-30T00:13:05.999Z,945.64
2019-04-30T00:14:05.629Z,945.63
2019-04-30T00:15:06.086Z,945.61
2019-04-30T00:16:05.368Z,945.66
2019-04-30T00:17:03.632Z,945.61
2019-04-30T00:18:05.415Z,945.57
2019-04-30T00:19:03.437Z,945.58
2019-04-30T00:20:05.208Z,945.62
2019-04-30T00:21:05.266Z,945.61
2019-04-30T00:22:03.143Z,945.55
2019-04-30T00:23:05.036Z,945.52
2019-04-30T00:24:06.257Z,945.53
2019-04-30T00:25:02.846Z,945.51
2019-04-30T00:26:06.277Z,945.50
2019-04-30T00:27:02.665Z,945.50
2019-04-30T00:28:05.248Z,945.47
2019-04-30T00:29:02.456Z,945.42
2019-04-30T00:30:07.309Z,945.43
2019-04-30T00:31:02.260Z,945.44
2019-04-30T00:32:04.430Z,945.39
2019-04-30T00:33:02.068Z,945.39
2019-04-30T00:34:01.963Z,945.41
2019-04-30T00:35:01.869Z,945.42
2019-04-30T00:36:01.766Z,945.35
2019-04-30T00:37:01.682Z,945.33
2019-04-30T00:38:01.569Z,945.37
2019-04-30T00:39:01.475Z,945.32
2019-04-30T00:40:01.376Z,945.29
2019-04-30T00:41:01.907Z,945.26
2019-04-30T00:42:01.187Z,945.29
2019-04-30T00:43:05.278Z,945.26
2019-04-30T00:44:00.978Z,945.27
2019-04-30T00:45:06.679Z,945.27
2019-04-30T00:46:00.780Z,945.32
2019-04-30T00:47:05.031Z,945.34
2019-04-30T00:48:00.596Z,945.28
2019-04-30T00:49:09.299Z,945.30
2019-04-30T00:50:00.546Z,945.29
2019-04-30T00:51:00.286Z,945.33
2019-04-30T00:52:00.206Z,945.28
2019-04-30T00:53:00.090Z,945.30
2019-04-30T00:53:59.988Z,945.27
2019-04-30T00:55:00.370Z,945.23
2019-04-30T00:55:59.796Z,945.27
2019-04-30T00:57:06.300Z,945.27
2019-04-30T00:57:59.594Z,945.23
2019-04-30T00:59:02.431Z,945.25
2019-04-30T00:59:59.408Z,945.26
2019-04-30T01:00:59.805Z,945.24
2019-04-30T01:01:59.213Z,945.25
2019-04-30T01:03:00.807Z,945.19
2019-04-30T01:03:59.001Z,945.22
2019-04-30T01:05:05.258Z,945.24
2019-04-30T01:05:58.801Z,945.25
2019-04-30T01:07:00.280Z,945.26
2019-04-30T01:07:58.622Z,945.25
2019-04-30T01:09:05.375Z,945.23
2019-04-30T01:09:58.406Z,945.25
2019-04-30T01:10:59.753Z,945.26
2019-04-30T01:11:58.211Z,945.25
2019-04-30T01:13:01.760Z,945.22
2019-04-30T01:13:59.081Z,945.21
2019-04-30T01:14:58.999Z,945.22
2019-04-30T01:15:58.815Z,945.19
2019-04-30T01:16:59.430Z,945.19
2019-04-30T01:17:59.296Z,945.17
2019-04-30T01:18:58.642Z,945.12
2019-04-30T01:19:59.160Z,945.13
2019-04-30T01:20:58.648Z,945.11
2019-04-30T01:21:57.221Z,945.07
2019-04-30T01:22:58.679Z,945.09
2019-04-30T01:23:59.035Z,945.11
2019-04-30T01:25:02.850Z,945.08
2019-04-30T01:25:58.476Z,945.06
2019-04-30T01:27:00.774Z,945.07
2019-04-30T01:27:58.491Z,945.07
2019-04-30T01:29:00.528Z,945.07
2019-04-30T01:29:56.426Z,945.03
2019-04-30T01:30:58.732Z,945.08
2019-04-30T01:31:56.229Z,945.08
2019-04-30T01:32:56.931Z,945.04
2019-04-30T01:33:56.028Z,945.08
2019-04-30T01:34:55.929Z,945.08
2019-04-30T01:35:55.831Z,945.07
2019-04-30T01:36:55.733Z,945.11
2019-04-30T01:37:55.758Z,945.07
2019-04-30T01:38:55.535Z,945.06
2019-04-30T01:39:55.435Z,945.12
2019-04-30T01:40:55.335Z,945.15
2019-04-30T01:41:55.235Z,945.14
2019-04-30T01:42:55.151Z,945.11
2019-04-30T01:43:55.037Z,945.17
2019-04-30T01:44:55.045Z,945.17
2019-04-30T01:45:54.837Z,945.19
2019-04-30T01:46:54.740Z,945.19
2019-04-30T01:47:54.789Z,945.21
2019-04-30T01:48:54.545Z,945.21
2019-04-30T01:49:55.811Z,945.22
2019-04-30T01:50:54.342Z,945.20
2019-04-30T01:51:57.450Z,945.17
2019-04-30T01:52:54.161Z,945.22
2019-04-30T01:53:54.047Z,945.23
2019-04-30T01:54:53.945Z,945.21
2019-04-30T01:55:53.848Z,945.20
2019-04-30T01:56:53.752Z,945.20
2019-04-30T01:57:53.649Z,945.25
2019-04-30T01:58:53.690Z,945.23
2019-04-30T01:59:53.456Z,945.26
2019-04-30T02:00:53.356Z,945.22
2019-04-30T02:01:53.252Z,945.24
2019-04-30T02:02:53.155Z,945.20
2019-04-30T02:03:53.071Z,945.19
2019-04-30T02:04:52.956Z,945.13
2019-04-30T02:05:52.965Z,945.14
2019-04-30T02:06:52.761Z,945.14
2019-04-30T02:07:52.661Z,945.15
2019-04-30T02:08:52.576Z,945.10
2019-04-30T02:09:52.459Z,945.15
2019-04-30T02:10:52.361Z,945.14
2019-04-30T02:11:52.264Z,945.13
2019-04-30T02:12:52.280Z,945.15
2019-04-30T02:13:52.081Z,945.12
2019-04-30T02:14:51.975Z,945.11
2019-04-30T02:15:51.866Z,945.06
2019-04-30T02:16:51.774Z,945.06
2019-04-30T02:17:51.670Z,945.06
2019-04-30T02:18:51.588Z,945.06
2019-04-30T02:19:56.524Z,945.04
2019-04-30T02:20:51.373Z,945.07
2019-04-30T02:21:51.274Z,945.05
2019-04-30T02:22:51.174Z,945.05
2019-04-30T02:23:51.089Z,945.00
2019-04-30T02:24:50.977Z,945.01
2019-04-30T02:25:50.880Z,945.03
2019-04-30T02:26:50.885Z,945.05
2019-04-30T02:27:50.679Z,945.03
2019-04-30T02:28:50.596Z,944.99
2019-04-30T02:29:50.486Z,944.98
2019-04-30T02:30:50.804Z,944.96
2019-04-30T02:31:50.562Z,944.98
2019-04-30T02:32:52.658Z,944.96
2019-04-30T02:33:50.365Z,944.99
2019-04-30T02:34:49.988Z,944.93
2019-04-30T02:35:50.190Z,944.99
2019-04-30T02:36:50.027Z,944.99
2019-04-30T02:37:50.550Z,944.98
2019-04-30T02:38:49.618Z,944.98
2019-04-30T02:39:50.328Z,944.96
2019-04-30T02:40:49.998Z,944.98
2019-04-30T02:41:50.574Z,944.98
2019-04-30T02:42:49.780Z,945.00
2019-04-30T02:43:49.795Z,944.98
2019-04-30T02:44:50.365Z,944.96
2019-04-30T02:45:49.812Z,944.98
2019-04-30T02:46:50.455Z,945.04
2019-04-30T02:47:49.995Z,944.98
2019-04-30T02:48:50.450Z,945.00
2019-04-30T02:49:50.026Z,944.96
2019-04-30T02:50:49.142Z,944.99
2019-04-30T02:51:49.913Z,944.98
2019-04-30T02:52:50.477Z,944.95
2019-04-30T02:53:50.193Z,944.96
2019-04-30T02:54:49.974Z,944.95
2019-04-30T02:55:49.929Z,944.98
2019-04-30T02:56:50.440Z,944.95
2019-04-30T02:57:49.748Z,945.00
2019-04-30T02:58:50.186Z,944.93
2019-04-30T02:59:49.675Z,944.98
2019-04-30T03:00:49.606Z,945.01
2019-04-30T03:01:49.918Z,944.98
2019-04-30T03:02:47.199Z,945.05
2019-04-30T03:03:49.497Z,945.07
2019-04-30T03:04:47.013Z,945.04
2019-04-30T03:05:49.547Z,945.06
2019-04-30T03:06:46.797Z,945.05
2019-04-30T03:07:46.694Z,945.02
2019-04-30T03:08:46.597Z,945.03
2019-04-30T03:09:46.512Z,945.04
2019-04-30T03:10:46.396Z,945.04
2019-04-30T03:11:46.297Z,945.05
2019-04-30T03:12:46.197Z,945.06
2019-04-30T03:13:46.094Z,945.05
2019-04-30T03:14:46.010Z,945.01
2019-04-30T03:15:45.897Z,945.01
2019-04-30T03:16:45.817Z,945.05
2019-04-30T03:17:45.699Z,945.06
2019-04-30T03:18:45.594Z,945.08
2019-04-30T03:19:45.509Z,945.10
2019-04-30T03:20:45.395Z,945.08
2019-04-30T03:21:45.296Z,945.11
2019-04-30T03:22:45.208Z,945.17
2019-04-30T03:23:45.096Z,945.09
2019-04-30T03:24:45.013Z,945.09
2019-04-30T03:25:44.892Z,945.13
2019-04-30T03:26:44.792Z,945.10
2019-04-30T03:27:44.693Z,945.11
2019-04-30T03:28:44.593Z,945.14
2019-04-30T03:29:44.513Z,945.17
2019-04-30T03:30:44.423Z,945.18
2019-04-30T03:31:45.693Z,945.22
2019-04-30T03:32:50.317Z,945.18
2019-04-30T03:33:44.126Z,945.20
2019-04-30T03:34:44.016Z,945.22
2019-04-30T03:35:47.825Z,945.20
2019-04-30T03:36:43.790Z,945.21
2019-04-30T03:37:44.006Z,945.24
2019-04-30T03:38:43.588Z,945.20
2019-04-30T03:39:43.502Z,945.26
2019-04-30T03:40:43.386Z,945.24
2019-04-30T03:41:43.301Z,945.25
2019-04-30T03:42:43.184Z,945.22
2019-04-30T03:43:43.084Z,945.27
2019-04-30T03:44:42.986Z,945.25
2019-04-30T03:45:42.896Z,945.24
2019-04-30T03:46:42.793Z,945.28
2019-04-30T03:47:43.162Z,945.26
2019-04-30T03:48:42.584Z,945.21
2019-04-30T03:49:42.485Z,945.24
2019-04-30T03:50:55.534Z,945.30
2019-04-30T03:51:42.284Z,945.32
2019-04-30T03:52:42.178Z,945.32
2019-04-30T03:53:42.659Z,945.34
2019-04-30T03:54:41.978Z,945.32
2019-04-30T03:55:41.893Z,945.28
2019-04-30T03:56:41.777Z,945.24
2019-04-30T03:57:41.676Z,945.22
2019-04-30T03:58:41.575Z,945.25
2019-04-30T03:59:41.473Z,945.25
2019-04-30T04:00:42.494Z,945.27
2019-04-30T04:01:41.281Z,945.28
2019-04-30T04:02:41.178Z,945.27
2019-04-30T04:03:42.281Z,945.27
2019-04-30T04:04:41.080Z,945.31
2019-04-30T04:05:40.886Z,945.30
2019-04-30T04:06:40.779Z,945.31
2019-04-30T04:07:40.678Z,945.33
2019-04-30T04:08:43.215Z,945.33
2019-04-30T04:09:40.468Z,945.30
2019-04-30T04:10:40.554Z,945.33
2019-04-30T04:11:40.383Z,945.31
2019-04-30T04:12:40.170Z,945.33
2019-04-30T04:13:40.178Z,945.35
2019-04-30T04:14:39.968Z,945.37
2019-04-30T04:15:40.191Z,945.36
2019-04-30T04:16:41.084Z,945.38
2019-04-30T04:17:39.930Z,945.37
2019-04-30T04:18:40.191Z,945.40
2019-04-30T04:19:39.465Z,945.39
2019-04-30T04:20:39.553Z,945.42
2019-04-30T04:21:39.445Z,945.43
2019-04-30T04:22:40.318Z,945.45
2019-04-30T04:23:39.933Z,945.39
2019-04-30T04:24:40.109Z,945.39
2019-04-30T04:25:39.933Z,945.46
2019-04-30T04:26:40.809Z,945.47
2019-04-30T04:27:39.308Z,945.47
2019-04-30T04:28:43.054Z,945.42
2019-04-30T04:29:40.341Z,945.47
2019-04-30T04:30:39.221Z,945.40
2019-04-30T04:31:39.532Z,945.40
2019-04-30T04:32:40.663Z,945.42
2019-04-30T04:33:39.556Z,945.37
2019-04-30T04:34:40.025Z,945.42
2019-04-30T04:35:39.281Z,945.46
2019-04-30T04:36:39.960Z,945.40
2019-04-30T04:37:39.439Z,945.40
2019-04-30T04:38:40.053Z,945.46
2019-04-30T04:39:38.916Z,945.44
2019-04-30T04:40:39.849Z,945.45
2019-04-30T04:41:39.728Z,945.46
2019-04-30T04:42:39.611Z,945.46
2019-04-30T04:43:37.059Z,945.44
2019-04-30T04:44:39.327Z,945.44
2019-04-30T04:45:36.875Z,945.46
2019-04-30T04:46:36.861Z,945.42
2019-04-30T04:47:36.657Z,945.44
2019-04-30T04:48:38.978Z,945.42
2019-04-30T04:49:36.451Z,945.44
2019-04-30T04:50:36.381Z,945.47
2019-04-30T04:51:39.409Z,945.43
2019-04-30T04:52:36.153Z,945.43
2019-04-30T04:53:36.161Z,945.49
2019-04-30T04:54:35.953Z,945.50
2019-04-30T04:55:35.854Z,945.53
2019-04-30T04:56:35.767Z,945.53
2019-04-30T04:57:35.650Z,945.49
2019-04-30T04:58:35.548Z,945.49
2019-04-30T04:59:35.456Z,945.50
2019-04-30T05:00:35.482Z,945.57
2019-04-30T05:01:35.264Z,945.54
2019-04-30T05:02:35.150Z,945.51
2019-04-30T05:03:35.049Z,945.54
2019-04-30T05:04:34.949Z,945.54
2019-04-30T05:05:34.850Z,945.50
2019-04-30T05:06:34.769Z,945.53
2019-04-30T05:07:34.754Z,945.49
2019-04-30T05:08:34.547Z,945.52
2019-04-30T05:09:34.447Z,945.54
2019-04-30T05:10:34.346Z,945.51
2019-04-30T05:11:34.263Z,945.53
2019-04-30T05:12:34.148Z,945.58
2019-04-30T05:13:34.734Z,945.55
2019-04-30T05:14:34.061Z,945.51
2019-04-30T05:15:33.850Z,945.48
2019-04-30T05:16:34.511Z,945.47
2019-04-30T05:17:33.647Z,945.52
2019-04-30T05:18:33.590Z,945.54
2019-04-30T05:19:33.449Z,945.53
2019-04-30T05:20:33.347Z,945.56
2019-04-30T05:21:42.077Z,945.59
2019-04-30T05:22:33.149Z,945.65
2019-04-30T05:23:33.051Z,945.54
2019-04-30T05:24:32.951Z,945.66
2019-04-30T05:25:32.851Z,945.65
2019-04-30T05:26:32.765Z,945.73
2019-04-30T05:27:32.653Z,945.63
2019-04-30T05:28:32.552Z,945.66
2019-04-30T05:29:32.451Z,945.69
2019-04-30T05:30:32.356Z,945.72
2019-04-30T05:31:32.269Z,945.70
2019-04-30T05:32:32.157Z,945.71
2019-04-30T05:33:32.057Z,945.66
2019-04-30T05:34:31.958Z,945.70
2019-04-30T05:35:31.856Z,945.71
2019-04-30T05:36:31.776Z,945.77
2019-04-30T05:37:31.657Z,945.74
2019-04-30T05:38:31.560Z,945.79
2019-04-30T05:39:31.462Z,945.81
2019-04-30T05:40:31.359Z,945.78
2019-04-30T05:41:31.276Z,945.74
2019-04-30T05:42:31.163Z,945.78
2019-04-30T05:43:31.067Z,945.80
2019-04-30T05:44:30.965Z,945.82
2019-04-30T05:45:33.557Z,945.80
2019-04-30T05:46:30.788Z,945.78
2019-04-30T05:47:30.674Z,945.78
2019-04-30T05:48:30.572Z,945.81
2019-04-30T05:49:30.476Z,945.84
2019-04-30T05:50:30.375Z,945.83
2019-04-30T05:51:30.293Z,945.84
2019-04-30T05:52:30.179Z,945.83
2019-04-30T05:53:30.084Z,945.84
2019-04-30T05:54:29.980Z,945.78
2019-04-30T05:55:29.883Z,945.78
2019-04-30T05:56:30.444Z,945.84
2019-04-30T05:57:29.687Z,945.81
2019-04-30T05:58:30.104Z,945.85
2019-04-30T05:59:29.491Z,945.74
2019-04-30T06:00:30.555Z,945.89
2019-04-30T06:01:29.638Z,945.85
2019-04-30T06:02:33.580Z,945.87
2019-04-30T06:03:32.985Z,945.84
2019-04-30T06:04:29.462Z,945.79
2019-04-30T06:05:28.900Z,945.86
2019-04-30T06:06:29.122Z,945.83
2019-04-30T06:07:29.946Z,945.82
2019-04-30T06:08:29.217Z,945.88
2019-04-30T06:09:31.619Z,945.82
2019-04-30T06:10:29.435Z,945.87
2019-04-30T06:11:29.252Z,945.89
2019-04-30T06:12:28.469Z,945.84
2019-04-30T06:13:28.749Z,945.99
2019-04-30T06:14:28.656Z,946.23
2019-04-30T06:15:29.090Z,946.28
2019-04-30T06:16:29.694Z,946.19
2019-04-30T06:17:29.347Z,946.27
2019-04-30T06:18:28.707Z,946.24
2019-04-30T06:19:29.240Z,946.24
2019-04-30T06:20:28.771Z,946.43
2019-04-30T06:21:29.377Z,946.37
2019-04-30T06:22:28.789Z,946.19
2019-04-30T06:23:29.262Z,946.19
2019-04-30T06:24:28.611Z,946.11
2019-04-30T06:25:32.102Z,946.15
2019-04-30T06:26:26.849Z,946.20
2019-04-30T06:27:29.011Z,946.28
2019-04-30T06:28:26.655Z,946.26
2019-04-30T06:29:26.556Z,946.49
2019-04-30T06:30:26.567Z,946.39
2019-04-30T06:31:34.701Z,946.51
2019-04-30T06:32:26.278Z,946.69
2019-04-30T06:33:26.166Z,946.79
2019-04-30T06:34:26.085Z,946.82
2019-04-30T06:35:25.971Z,946.89
2019-04-30T06:36:25.874Z,947.24
2019-04-30T06:37:25.901Z,947.16
2019-04-30T06:38:25.682Z,947.22
2019-04-30T06:39:25.583Z,947.40
2019-04-30T06:40:25.487Z,947.68
2019-04-30T06:41:25.390Z,947.75
2019-04-30T06:42:25.308Z,947.97
2019-04-30T06:43:25.198Z,948.16
2019-04-30T06:44:34.962Z,948.41
2019-04-30T06:45:25.001Z,948.46
2019-04-30T06:46:24.908Z,948.93
2019-04-30T06:47:32.837Z,949.05
2019-04-30T06:48:24.719Z,946.92
2019-04-30T06:49:24.625Z,947.71
2019-04-30T06:50:24.522Z,949.70
2019-04-30T06:51:24.531Z,950.69
2019-04-30T06:52:24.345Z,950.62
2019-04-30T06:53:24.237Z,947.81
2019-04-30T06:54:24.147Z,946.50
2019-04-30T06:55:24.045Z,948.17
2019-04-30T06:56:23.953Z,951.40
2019-04-30T06:57:23.868Z,952.09
2019-04-30T06:58:23.868Z,953.06
2019-04-30T06:59:23.665Z,953.12
2019-04-30T07:00:32.778Z,952.56
2019-04-30T07:01:23.474Z,952.97
2019-04-30T07:02:23.395Z,954.06
2019-04-30T07:03:23.283Z,954.40
2019-04-30T07:04:23.188Z,954.26
2019-04-30T07:05:23.198Z,954.21
2019-04-30T07:06:29.772Z,954.09
2019-04-30T07:07:26.909Z,955.43
2019-04-30T07:08:22.812Z,956.39
2019-04-30T07:09:26.621Z,956.84
2019-04-30T07:10:22.622Z,956.56
2019-04-30T07:11:22.529Z,956.24
2019-04-30T07:12:27.683Z,956.08
2019-04-30T07:13:22.353Z,956.55
2019-04-30T07:14:22.248Z,956.44
2019-04-30T07:15:22.150Z,954.89
2019-04-30T07:16:22.060Z,953.67
2019-04-30T07:17:21.963Z,953.49
2019-04-30T07:18:21.881Z,953.99
2019-04-30T07:19:31.819Z,955.07
2019-04-30T07:20:21.682Z,955.41
2019-04-30T07:21:21.586Z,955.12
2019-04-30T07:22:36.698Z,955.07
2019-04-30T07:23:21.414Z,955.23
2019-04-30T07:24:21.306Z,955.37
2019-04-30T07:25:21.214Z,955.75
2019-04-30T07:26:24.452Z,958.27
2019-04-30T07:27:24.140Z,960.17
2019-04-30T07:28:20.944Z,959.09
2019-04-30T07:29:20.834Z,957.77
2019-04-30T07:30:20.741Z,957.44
2019-04-30T07:31:20.649Z,958.53
2019-04-30T07:32:20.682Z,960.85
2019-04-30T07:33:20.956Z,946.89
2019-04-30T07:34:20.388Z,962.71
2019-04-30T07:35:20.276Z,961.07
2019-04-30T07:36:20.181Z,957.79
2019-04-30T07:37:24.125Z,954.01
2019-04-30T07:38:20.010Z,953.70
2019-04-30T07:39:23.410Z,954.74
2019-04-30T07:40:19.808Z,958.94
2019-04-30T07:41:19.717Z,958.73
2019-04-30T07:42:19.622Z,957.34
2019-04-30T07:43:19.542Z,950.31
2019-04-30T07:44:31.216Z,956.04
2019-04-30T07:45:19.657Z,955.49
2019-04-30T07:46:20.022Z,954.90
2019-04-30T07:47:19.690Z,954.57
2019-04-30T07:48:25.872Z,954.00
2019-04-30T07:49:20.546Z,953.72
2019-04-30T07:50:21.572Z,953.63
2019-04-30T07:51:20.927Z,953.34
2019-04-30T07:52:21.296Z,953.11
2019-04-30T07:53:18.814Z,952.81
2019-04-30T07:54:19.013Z,952.68
2019-04-30T07:55:19.654Z,952.46
2019-04-30T07:56:25.710Z,952.47
2019-04-30T07:57:19.237Z,952.99
2019-04-30T07:58:20.525Z,953.30
2019-04-30T07:59:20.127Z,953.99
2019-04-30T08:00:19.315Z,952.95
2019-04-30T08:01:19.582Z,952.12
2019-04-30T08:02:20.570Z,951.15
2019-04-30T08:03:20.587Z,950.20
2019-04-30T08:04:18.843Z,949.88
2019-04-30T08:05:19.287Z,949.94
2019-04-30T08:06:19.010Z,949.81
2019-04-30T08:07:17.740Z,949.63
2019-04-30T08:08:24.379Z,949.55
2019-04-30T08:09:21.879Z,949.23
2019-04-30T08:10:18.794Z,948.84
2019-04-30T08:11:23.910Z,948.69
2019-04-30T08:12:25.631Z,948.68
2019-04-30T08:13:17.249Z,948.57
2019-04-30T08:14:18.494Z,948.46
2019-04-30T08:15:16.560Z,948.30
2019-04-30T08:16:18.598Z,948.03
2019-04-30T08:17:16.376Z,947.96
2019-04-30T08:18:16.285Z,947.95
2019-04-30T08:19:16.208Z,947.97
2019-04-30T08:20:16.103Z,947.89
2019-04-30T08:21:16.010Z,947.86
2019-04-30T08:22:15.919Z,947.77
2019-04-30T08:23:31.485Z,947.61
2019-04-30T08:24:15.737Z,947.61
2019-04-30T08:25:15.681Z,947.56
2019-04-30T08:26:15.553Z,947.48
2019-04-30T08:27:15.464Z,947.47
2019-04-30T08:28:15.374Z,947.46
2019-04-30T08:29:15.285Z,947.38
2019-04-30T08:30:25.634Z,947.35
2019-04-30T08:31:15.631Z,947.36
2019-04-30T08:32:15.007Z,947.31
2019-04-30T08:33:14.916Z,947.33
2019-04-30T08:34:14.824Z,947.36
2019-04-30T08:35:14.762Z,947.37
2019-04-30T08:36:14.648Z,947.31
2019-04-30T08:37:17.586Z,947.31
2019-04-30T08:38:14.461Z,947.16
2019-04-30T08:39:14.369Z,947.03
2019-04-30T08:40:14.292Z,947.30
2019-04-30T08:41:14.187Z,947.28
2019-04-30T08:42:14.097Z,947.29
2019-04-30T08:43:14.007Z,947.34
2019-04-30T08:44:13.915Z,947.28
2019-04-30T08:45:13.833Z,947.34
2019-04-30T08:46:13.735Z,947.19
2019-04-30T08:47:13.642Z,947.28
2019-04-30T08:48:13.557Z,947.28
2019-04-30T08:49:13.651Z,947.27
2019-04-30T08:50:13.444Z,947.28
2019-04-30T08:51:14.086Z,947.23
2019-04-30T08:52:13.190Z,947.30
2019-04-30T08:53:26.289Z,947.29
2019-04-30T08:54:13.007Z,947.35
2019-04-30T08:55:16.748Z,947.34
2019-04-30T08:56:12.827Z,947.32
2019-04-30T08:57:12.734Z,947.27
2019-04-30T08:58:15.166Z,947.30
2019-04-30T08:59:12.552Z,947.29
2019-04-30T09:00:14.963Z,947.29
2019-04-30T09:01:12.373Z,947.33
2019-04-30T09:02:15.836Z,947.14
2019-04-30T09:03:12.190Z,947.21
2019-04-30T09:04:12.099Z,947.23
2019-04-30T09:05:12.023Z,947.26
2019-04-30T09:06:11.922Z,947.27
2019-04-30T09:07:11.829Z,947.26
2019-04-30T09:08:11.737Z,947.36
2019-04-30T09:09:11.648Z,947.33
2019-04-30T09:10:11.574Z,947.46
2019-04-30T09:11:22.654Z,947.38
2019-04-30T09:12:11.379Z,947.51
2019-04-30T09:13:11.285Z,947.46
2019-04-30T09:14:11.196Z,947.38
2019-04-30T09:15:11.119Z,947.38
2019-04-30T09:16:11.016Z,947.36
2019-04-30T09:17:10.936Z,947.39
2019-04-30T09:18:12.643Z,947.44
2019-04-30T09:19:10.744Z,947.49
2019-04-30T09:20:11.094Z,947.35
2019-04-30T09:21:10.568Z,947.58
2019-04-30T09:22:15.019Z,947.58
2019-04-30T09:23:11.248Z,947.55
2019-04-30T09:24:10.295Z,947.65
2019-04-30T09:25:10.325Z,947.55
2019-04-30T09:26:10.116Z,947.47
2019-04-30T09:27:10.804Z,947.49
2019-04-30T09:28:09.937Z,947.49
2019-04-30T09:29:09.853Z,947.55
2019-04-30T09:30:10.382Z,947.58
2019-04-30T09:31:09.667Z,947.61
2019-04-30T09:32:09.683Z,947.56
2019-04-30T09:33:11.130Z,947.54
2019-04-30T09:34:17.172Z,947.56
2019-04-30T09:35:09.611Z,947.66
2019-04-30T09:36:09.332Z,947.72
2019-04-30T09:37:09.153Z,947.55
2019-04-30T09:38:09.235Z,947.57
2019-04-30T09:39:09.097Z,947.57
2019-04-30T09:40:17.638Z,947.57
2019-04-30T09:41:09.300Z,947.61
2019-04-30T09:42:09.264Z,947.63
2019-04-30T09:43:08.747Z,947.64
2019-04-30T09:44:10.030Z,947.70
2019-04-30T09:45:08.827Z,947.67
2019-04-30T09:46:18.969Z,947.66
2019-04-30T09:47:08.911Z,947.67
2019-04-30T09:48:09.411Z,947.67
2019-04-30T09:49:09.640Z,947.70
2019-04-30T09:50:09.139Z,947.71
2019-04-30T09:51:10.179Z,947.75
2019-04-30T09:52:09.072Z,947.73
2019-04-30T09:53:09.636Z,947.71
2019-04-30T09:54:11.688Z,947.68
2019-04-30T09:55:09.426Z,947.81
2019-04-30T09:56:09.421Z,947.74
2019-04-30T09:57:08.775Z,947.74
2019-04-30T09:58:16.215Z,947.75
2019-04-30T09:59:09.027Z,947.80
2019-04-30T10:00:08.955Z,947.78
2019-04-30T10:01:09.284Z,947.76
2019-04-30T10:02:09.156Z,947.76
2019-04-30T10:03:09.636Z,947.80
2019-04-30T10:04:07.027Z,947.78
2019-04-30T10:05:07.106Z,947.77
2019-04-30T10:06:06.571Z,947.84
2019-04-30T10:07:06.577Z,947.87
2019-04-30T10:08:06.378Z,947.82
2019-04-30T10:09:06.292Z,947.83
2019-04-30T10:10:08.874Z,947.81
2019-04-30T10:11:06.116Z,947.80
2019-04-30T10:12:06.040Z,947.83
2019-04-30T10:13:05.935Z,947.82
2019-04-30T10:14:05.959Z,947.79
2019-04-30T10:15:05.760Z,947.89
2019-04-30T10:16:05.675Z,947.90
2019-04-30T10:17:05.601Z,947.87
2019-04-30T10:18:05.496Z,947.87
2019-04-30T10:19:05.408Z,947.85
2019-04-30T10:20:05.444Z,947.85
2019-04-30T10:21:05.234Z,947.83
2019-04-30T10:22:05.167Z,947.83
2019-04-30T10:23:05.055Z,947.88
2019-04-30T10:24:14.826Z,947.84
2019-04-30T10:25:04.879Z,947.83
2019-04-30T10:26:04.791Z,947.85
2019-04-30T10:27:07.159Z,947.86
2019-04-30T10:28:04.624Z,947.93
2019-04-30T10:29:04.527Z,947.87
2019-04-30T10:30:04.438Z,947.85
2019-04-30T10:31:04.351Z,947.86
2019-04-30T10:32:04.280Z,947.91
2019-04-30T10:33:04.177Z,947.87
2019-04-30T10:34:04.089Z,947.84
2019-04-30T10:35:04.000Z,947.86
2019-04-30T10:36:03.914Z,947.90
2019-04-30T10:37:03.840Z,947.85
2019-04-30T10:38:03.737Z,947.86
2019-04-30T10:39:03.648Z,947.87
2019-04-30T10:40:03.562Z,947.90
2019-04-30T10:41:03.475Z,947.87
2019-04-30T10:42:03.402Z,947.90
2019-04-30T10:43:03.301Z,947.88
2019-04-30T10:44:03.211Z,947.88
2019-04-30T10:45:03.126Z,947.86
2019-04-30T10:46:03.037Z,947.83
2019-04-30T10:47:02.966Z,947.83
2019-04-30T10:48:02.860Z,947.89
2019-04-30T10:49:02.772Z,947.86
2019-04-30T10:50:02.687Z,947.82
2019-04-30T10:51:02.598Z,947.89
2019-04-30T10:52:02.513Z,947.83
2019-04-30T10:53:02.437Z,947.83
2019-04-30T10:54:02.336Z,947.89
2019-04-30T10:55:04.439Z,947.92
2019-04-30T10:56:02.161Z,947.86
2019-04-30T10:57:02.090Z,947.85
2019-04-30T10:58:01.987Z,947.84
2019-04-30T10:59:01.902Z,947.72
2019-04-30T11:00:01.815Z,947.78
2019-04-30T11:01:01.951Z,947.81
2019-04-30T11:02:01.640Z,947.79
2019-04-30T11:03:01.565Z,947.77
2019-04-30T11:04:01.466Z,947.71
2019-04-30T11:05:01.374Z,947.64
2019-04-30T11:06:01.287Z,947.58
2019-04-30T11:07:01.201Z,947.60
2019-04-30T11:08:01.128Z,947.66
2019-04-30T11:09:01.025Z,947.68
2019-04-30T11:10:00.942Z,947.50
2019-04-30T11:11:00.850Z,947.65
2019-04-30T11:12:03.021Z,947.64
2019-04-30T11:13:00.689Z,947.63
2019-04-30T11:14:00.586Z,947.62
2019-04-30T11:15:00.523Z,947.65
2019-04-30T11:16:12.175Z,947.55
2019-04-30T11:17:00.664Z,947.57
2019-04-30T11:18:00.458Z,947.61
2019-04-30T11:19:00.196Z,947.60
2019-04-30T11:20:00.264Z,947.60
2019-04-30T11:21:00.077Z,947.51
2019-04-30T11:22:00.155Z,947.48
2019-04-30T11:23:00.014Z,947.47
2019-04-30T11:23:59.853Z,947.33
2019-04-30T11:25:02.631Z,947.44
2019-04-30T11:26:00.434Z,947.42
2019-04-30T11:27:00.521Z,947.35
2019-04-30T11:27:59.811Z,947.35
2019-04-30T11:28:59.462Z,947.32
2019-04-30T11:30:03.189Z,947.32
2019-04-30T11:30:59.210Z,947.31
2019-04-30T11:31:59.157Z,947.32
2019-04-30T11:32:59.140Z,947.24
2019-04-30T11:33:58.839Z,947.25
2019-04-30T11:34:58.750Z,947.21
2019-04-30T11:36:03.098Z,947.26
2019-04-30T11:36:58.673Z,947.17
2019-04-30T11:37:58.502Z,947.25
2019-04-30T11:38:58.710Z,947.28
2019-04-30T11:39:58.319Z,947.21
2019-04-30T11:40:58.477Z,947.22
2019-04-30T11:41:58.162Z,947.19
2019-04-30T11:42:58.069Z,947.27
2019-04-30T11:43:59.446Z,947.14
2019-04-30T11:44:58.696Z,947.26
2019-04-30T11:46:00.069Z,947.20
2019-04-30T11:46:59.472Z,947.18
2019-04-30T11:48:00.402Z,947.15
2019-04-30T11:48:58.695Z,947.10
2019-04-30T11:49:57.453Z,947.19
2019-04-30T11:50:59.429Z,947.33
2019-04-30T11:51:57.297Z,947.35
2019-04-30T11:53:14.001Z,947.36
2019-04-30T11:53:59.200Z,947.43
2019-04-30T11:54:57.007Z,947.50
2019-04-30T11:55:59.086Z,947.53
2019-04-30T11:56:58.677Z,947.51
2019-04-30T11:57:56.876Z,947.48
2019-04-30T11:58:58.745Z,947.49
2019-04-30T11:59:56.575Z,947.48
2019-04-30T12:00:56.486Z,947.43
2019-04-30T12:01:56.400Z,947.48
2019-04-30T12:02:56.317Z,947.40
2019-04-30T12:03:56.244Z,947.26
2019-04-30T12:04:56.252Z,947.28
2019-04-30T12:05:56.073Z,947.20
2019-04-30T12:06:55.973Z,947.23
2019-04-30T12:07:55.881Z,947.27
2019-04-30T12:08:55.830Z,947.27
2019-04-30T12:09:55.712Z,947.33
2019-04-30T12:10:55.630Z,947.30
2019-04-30T12:11:55.638Z,947.25
2019-04-30T12:12:55.451Z,947.30
2019-04-30T12:13:55.379Z,947.33
2019-04-30T12:14:55.275Z,947.38
2019-04-30T12:15:55.190Z,947.38
2019-04-30T12:16:55.102Z,947.35
2019-04-30T12:17:55.019Z,947.40
2019-04-30T12:18:55.055Z,947.39
2019-04-30T12:19:54.860Z,947.35
2019-04-30T12:20:54.758Z,947.34
2019-04-30T12:21:54.669Z,947.31
2019-04-30T12:22:54.585Z,947.36
2019-04-30T12:23:54.514Z,947.33
2019-04-30T12:25:02.693Z,947.34
2019-04-30T12:25:54.430Z,947.31
2019-04-30T12:26:54.237Z,947.28